sensor_id;sensor_type;location;lat;lon;timestamp;P1;durP1;ratioP1;P2;durP2;ratioP2
35494;SDS011;75532;49.300;6.846;2024-03-08T00:00:28;8.27;;;7.57;;
35494;SDS011;75532;49.300;6.846;2024-03-08T00:03:35;7.70;;;7.10;;
35494;SDS011;75532;49.300;6.846;2024-03-08T00:06:35;8.20;;;7.55;;
35494;SDS011;75532;49.300;6.846;2024-03-08T00:09:36;7.38;;;6.78;;
35494;SDS011;75532;49.300;6.846;2024-03-08T00:12:37;8.02;;;7.32;;
35494;SDS011;75532;49.300;6.846;2024-03-08T00:15:39;8.43;;;7.68;;
35494;SDS011;75532;49.300;6.846;2024-03-08T00:18:41;8.13;;;7.53;;
35494;SDS011;75532;49.300;6.846;2024-03-08T00:21:41;7.05;;;6.55;;
35494;SDS011;75532;49.300;6.846;2024-03-08T00:24:42;8.18;;;7.40;;
35494;SDS011;75532;49.300;6.846;2024-03-08T00:27:43;8.52;;;7.72;;
35494;SDS011;75532;49.300;6.846;2024-03-08T00:30:44;7.68;;;7.07;;
35494;SDS011;75532;49.300;6.846;2024-03-08T00:33:46;7.45;;;6.82;;
35494;SDS011;75532;49.300;6.846;2024-03-08T00:36:47;7.65;;;6.95;;
35494;SDS011;75532;49.300;6.846;2024-03-08T00:39:51;8.00;;;6.90;;
35494;SDS011;75532;49.300;6.846;2024-03-08T00:42:52;7.60;;;6.38;;
35494;SDS011;75532;49.300;6.846;2024-03-08T00:45:53;7.50;;;6.90;;
35494;SDS011;75532;49.300;6.846;2024-03-08T00:48:54;7.47;;;6.88;;
35494;SDS011;75532;49.300;6.846;2024-03-08T00:51:55;7.38;;;6.68;;
35494;SDS011;75532;49.300;6.846;2024-03-08T00:54:56;7.07;;;6.47;;
35494;SDS011;75532;49.300;6.846;2024-03-08T00:57:56;7.50;;;6.90;;
35494;SDS011;75532;49.300;6.846;2024-03-08T01:00:57;7.03;;;6.47;;
35494;SDS011;75532;49.300;6.846;2024-03-08T01:03:59;7.00;;;6.50;;
35494;SDS011;75532;49.300;6.846;2024-03-08T01:07:00;7.20;;;6.50;;
35494;SDS011;75532;49.300;6.846;2024-03-08T01:10:01;7.13;;;6.53;;
35494;SDS011;75532;49.300;6.846;2024-03-08T01:13:03;7.40;;;6.70;;
35494;SDS011;75532;49.300;6.846;2024-03-08T01:16:03;6.80;;;6.30;;
35494;SDS011;75532;49.300;6.846;2024-03-08T01:19:04;7.40;;;6.80;;
35494;SDS011;75532;49.300;6.846;2024-03-08T01:22:05;7.70;;;7.05;;
35494;SDS011;75532;49.300;6.846;2024-03-08T01:25:06;7.63;;;6.95;;
35494;SDS011;75532;49.300;6.846;2024-03-08T01:28:08;7.68;;;6.93;;
35494;SDS011;75532;49.300;6.846;2024-03-08T01:31:09;7.13;;;6.63;;
35494;SDS011;75532;49.300;6.846;2024-03-08T01:34:10;6.90;;;6.40;;
35494;SDS011;75532;49.300;6.846;2024-03-08T01:37:10;7.05;;;6.55;;
35494;SDS011;75532;49.300;6.846;2024-03-08T01:40:11;7.30;;;6.60;;
35494;SDS011;75532;49.300;6.846;2024-03-08T01:43:30;7.35;;;6.75;;
35494;SDS011;75532;49.300;6.846;2024-03-08T01:46:31;8.15;;;7.45;;
35494;SDS011;75532;49.300;6.846;2024-03-08T01:49:31;6.95;;;6.45;;
35494;SDS011;75532;49.300;6.846;2024-03-08T01:52:33;7.68;;;6.97;;
35494;SDS011;75532;49.300;6.846;2024-03-08T01:55:35;7.40;;;6.80;;
35494;SDS011;75532;49.300;6.846;2024-03-08T01:58:36;6.57;;;6.00;;
35494;SDS011;75532;49.300;6.846;2024-03-08T02:01:37;6.28;;;5.78;;
35494;SDS011;75532;49.300;6.846;2024-03-08T02:04:38;6.72;;;6.13;;
35494;SDS011;75532;49.300;6.846;2024-03-08T02:07:41;6.45;;;5.95;;
35494;SDS011;75532;49.300;6.846;2024-03-08T02:10:44;6.35;;;5.85;;
35494;SDS011;75532;49.300;6.846;2024-03-08T02:13:44;7.03;;;6.47;;
35494;SDS011;75532;49.300;6.846;2024-03-08T02:16:45;6.55;;;6.10;;
35494;SDS011;75532;49.300;6.846;2024-03-08T02:19:46;6.10;;;5.60;;
35494;SDS011;75532;49.300;6.846;2024-03-08T02:22:46;6.03;;;5.63;;
35494;SDS011;75532;49.300;6.846;2024-03-08T02:25:47;5.90;;;5.50;;
35494;SDS011;75532;49.300;6.846;2024-03-08T02:28:48;6.70;;;6.20;;
35494;SDS011;75532;49.300;6.846;2024-03-08T02:31:50;6.40;;;5.90;;
35494;SDS011;75532;49.300;6.846;2024-03-08T02:34:55;6.40;;;5.95;;
35494;SDS011;75532;49.300;6.846;2024-03-08T02:37:56;7.18;;;6.57;;
35494;SDS011;75532;49.300;6.846;2024-03-08T02:40:58;6.55;;;5.95;;
35494;SDS011;75532;49.300;6.846;2024-03-08T02:43:58;6.15;;;5.68;;
35494;SDS011;75532;49.300;6.846;2024-03-08T02:47:00;6.00;;;5.60;;
35494;SDS011;75532;49.300;6.846;2024-03-08T02:50:00;6.00;;;5.60;;
35494;SDS011;75532;49.300;6.846;2024-03-08T02:53:01;6.28;;;5.88;;
35494;SDS011;75532;49.300;6.846;2024-03-08T02:56:02;6.05;;;5.65;;
35494;SDS011;75532;49.300;6.846;2024-03-08T02:59:02;6.15;;;5.75;;
35494;SDS011;75532;49.300;6.846;2024-03-08T03:02:03;6.07;;;5.65;;
35494;SDS011;75532;49.300;6.846;2024-03-08T03:05:04;6.30;;;5.88;;
35494;SDS011;75532;49.300;6.846;2024-03-08T03:08:06;6.80;;;6.22;;
35494;SDS011;75532;49.300;6.846;2024-03-08T03:11:08;5.72;;;5.30;;
35494;SDS011;75532;49.300;6.846;2024-03-08T03:14:09;6.47;;;5.95;;
35494;SDS011;75532;49.300;6.846;2024-03-08T03:17:09;6.80;;;6.40;;
35494;SDS011;75532;49.300;6.846;2024-03-08T03:20:10;6.50;;;5.97;;
35494;SDS011;75532;49.300;6.846;2024-03-08T03:23:13;5.53;;;5.15;;
35494;SDS011;75532;49.300;6.846;2024-03-08T03:26:14;6.75;;;6.25;;
35494;SDS011;75532;49.300;6.846;2024-03-08T03:29:17;6.32;;;5.82;;
35494;SDS011;75532;49.300;6.846;2024-03-08T03:32:18;6.45;;;5.95;;
35494;SDS011;75532;49.300;6.846;2024-03-08T03:35:18;6.18;;;5.68;;
35494;SDS011;75532;49.300;6.846;2024-03-08T03:38:20;5.82;;;5.43;;
35494;SDS011;75532;49.300;6.846;2024-03-08T03:41:23;5.68;;;5.28;;
35494;SDS011;75532;49.300;6.846;2024-03-08T03:44:24;5.80;;;5.40;;
35494;SDS011;75532;49.300;6.846;2024-03-08T03:47:24;6.43;;;5.97;;
35494;SDS011;75532;49.300;6.846;2024-03-08T03:50:26;6.10;;;5.70;;
35494;SDS011;75532;49.300;6.846;2024-03-08T03:53:27;5.45;;;5.07;;
35494;SDS011;75532;49.300;6.846;2024-03-08T03:56:28;5.95;;;5.55;;
35494;SDS011;75532;49.300;6.846;2024-03-08T03:59:29;5.60;;;5.20;;
35494;SDS011;75532;49.300;6.846;2024-03-08T04:02:30;5.78;;;5.38;;
35494;SDS011;75532;49.300;6.846;2024-03-08T04:05:30;6.15;;;5.57;;
35494;SDS011;75532;49.300;6.846;2024-03-08T04:08:31;5.85;;;5.40;;
35494;SDS011;75532;49.300;6.846;2024-03-08T04:11:34;6.03;;;5.53;;
35494;SDS011;75532;49.300;6.846;2024-03-08T04:14:34;5.63;;;5.22;;
35494;SDS011;75532;49.300;6.846;2024-03-08T04:17:35;6.22;;;5.72;;
35494;SDS011;75532;49.300;6.846;2024-03-08T04:20:37;5.43;;;4.93;;
35494;SDS011;75532;49.300;6.846;2024-03-08T04:23:37;5.60;;;5.20;;
35494;SDS011;75532;49.300;6.846;2024-03-08T04:26:38;5.25;;;4.85;;
35494;SDS011;75532;49.300;6.846;2024-03-08T04:29:38;5.57;;;5.18;;
35494;SDS011;75532;49.300;6.846;2024-03-08T04:32:39;5.68;;;5.28;;
35494;SDS011;75532;49.300;6.846;2024-03-08T04:35:41;5.57;;;5.28;;
35494;SDS011;75532;49.300;6.846;2024-03-08T04:38:41;5.30;;;4.90;;
35494;SDS011;75532;49.300;6.846;2024-03-08T04:41:42;5.65;;;5.25;;
35494;SDS011;75532;49.300;6.846;2024-03-08T04:44:46;6.13;;;5.63;;
35494;SDS011;75532;49.300;6.846;2024-03-08T04:47:46;4.88;;;4.57;;
35494;SDS011;75532;49.300;6.846;2024-03-08T04:50:52;4.93;;;4.60;;
35494;SDS011;75532;49.300;6.846;2024-03-08T04:53:53;6.05;;;5.35;;
35494;SDS011;75532;49.300;6.846;2024-03-08T04:56:54;5.43;;;5.03;;
35494;SDS011;75532;49.300;6.846;2024-03-08T04:59:54;4.85;;;4.55;;
35494;SDS011;75532;49.300;6.846;2024-03-08T05:02:55;5.63;;;5.22;;
35494;SDS011;75532;49.300;6.846;2024-03-08T05:05:55;5.55;;;5.15;;
35494;SDS011;75532;49.300;6.846;2024-03-08T05:08:56;5.07;;;4.70;;
35494;SDS011;75532;49.300;6.846;2024-03-08T05:11:57;5.22;;;4.82;;
35494;SDS011;75532;49.300;6.846;2024-03-08T05:14:59;5.10;;;4.70;;
35494;SDS011;75532;49.300;6.846;2024-03-08T05:18:00;5.03;;;4.72;;
35494;SDS011;75532;49.300;6.846;2024-03-08T05:21:00;5.18;;;4.78;;
35494;SDS011;75532;49.300;6.846;2024-03-08T05:24:03;6.70;;;5.80;;
35494;SDS011;75532;49.300;6.846;2024-03-08T05:27:05;5.00;;;4.63;;
35494;SDS011;75532;49.300;6.846;2024-03-08T05:30:06;5.85;;;5.35;;
35494;SDS011;75532;49.300;6.846;2024-03-08T05:33:07;6.13;;;5.63;;
35494;SDS011;75532;49.300;6.846;2024-03-08T05:36:11;11.73;;;6.90;;
35494;SDS011;75532;49.300;6.846;2024-03-08T05:39:12;12.60;;;6.05;;
35494;SDS011;75532;49.300;6.846;2024-03-08T05:42:13;21.98;;;7.00;;
35494;SDS011;75532;49.300;6.846;2024-03-08T05:45:14;15.30;;;7.10;;
35494;SDS011;75532;49.300;6.846;2024-03-08T05:48:15;12.55;;;7.18;;
35494;SDS011;75532;49.300;6.846;2024-03-08T05:51:15;8.40;;;6.35;;
35494;SDS011;75532;49.300;6.846;2024-03-08T05:54:16;10.35;;;6.28;;
35494;SDS011;75532;49.300;6.846;2024-03-08T05:57:17;7.70;;;6.50;;
35494;SDS011;75532;49.300;6.846;2024-03-08T06:00:17;10.35;;;7.20;;
35494;SDS011;75532;49.300;6.846;2024-03-08T06:03:19;8.18;;;7.43;;
35494;SDS011;75532;49.300;6.846;2024-03-08T06:06:21;8.63;;;7.13;;
35494;SDS011;75532;49.300;6.846;2024-03-08T06:09:25;8.65;;;7.75;;
35494;SDS011;75532;49.300;6.846;2024-03-08T06:12:25;11.25;;;6.68;;
35494;SDS011;75532;49.300;6.846;2024-03-08T06:15:28;8.00;;;6.47;;
35494;SDS011;75532;49.300;6.846;2024-03-08T06:18:30;11.82;;;6.78;;
35494;SDS011;75532;49.300;6.846;2024-03-08T06:21:31;6.97;;;6.28;;
35494;SDS011;75532;49.300;6.846;2024-03-08T06:24:32;6.53;;;6.00;;
35494;SDS011;75532;49.300;6.846;2024-03-08T06:27:32;6.63;;;5.63;;
35494;SDS011;75532;49.300;6.846;2024-03-08T06:30:34;6.63;;;6.00;;
35494;SDS011;75532;49.300;6.846;2024-03-08T06:33:34;8.45;;;6.15;;
35494;SDS011;75532;49.300;6.846;2024-03-08T06:36:35;6.18;;;5.68;;
35494;SDS011;75532;49.300;6.846;2024-03-08T06:39:37;5.80;;;5.25;;
35494;SDS011;75532;49.300;6.846;2024-03-08T06:42:39;7.57;;;5.38;;
35494;SDS011;75532;49.300;6.846;2024-03-08T06:45:42;5.63;;;5.15;;
35494;SDS011;75532;49.300;6.846;2024-03-08T06:48:48;5.82;;;5.07;;
35494;SDS011;75532;49.300;6.846;2024-03-08T06:51:49;5.90;;;5.45;;
35494;SDS011;75532;49.300;6.846;2024-03-08T06:54:49;6.32;;;5.72;;
35494;SDS011;75532;49.300;6.846;2024-03-08T06:57:52;6.65;;;6.00;;
35494;SDS011;75532;49.300;6.846;2024-03-08T07:00:53;5.20;;;4.80;;
35494;SDS011;75532;49.300;6.846;2024-03-08T07:03:53;6.97;;;5.50;;
35494;SDS011;75532;49.300;6.846;2024-03-08T07:06:56;7.07;;;5.45;;
35494;SDS011;75532;49.300;6.846;2024-03-08T07:09:57;5.90;;;5.30;;
35494;SDS011;75532;49.300;6.846;2024-03-08T07:12:58;8.23;;;7.53;;
35494;SDS011;75532;49.300;6.846;2024-03-08T07:16:00;8.52;;;7.82;;
35494;SDS011;75532;49.300;6.846;2024-03-08T07:19:01;10.77;;;7.32;;
35494;SDS011;75532;49.300;6.846;2024-03-08T07:22:03;6.88;;;6.18;;
35494;SDS011;75532;49.300;6.846;2024-03-08T07:25:07;7.70;;;6.07;;
35494;SDS011;75532;49.300;6.846;2024-03-08T07:28:21;6.82;;;5.93;;
35494;SDS011;75532;49.300;6.846;2024-03-08T07:31:21;6.38;;;5.78;;
35494;SDS011;75532;49.300;6.846;2024-03-08T07:34:40;6.03;;;5.53;;
35494;SDS011;75532;49.300;6.846;2024-03-08T07:37:41;5.68;;;5.10;;
35494;SDS011;75532;49.300;6.846;2024-03-08T07:40:41;4.80;;;4.38;;
35494;SDS011;75532;49.300;6.846;2024-03-08T07:43:45;5.88;;;5.38;;
35494;SDS011;75532;49.300;6.846;2024-03-08T07:46:48;5.93;;;5.43;;
35494;SDS011;75532;49.300;6.846;2024-03-08T07:49:51;6.00;;;5.50;;
35494;SDS011;75532;49.300;6.846;2024-03-08T07:52:54;5.10;;;4.70;;
35494;SDS011;75532;49.300;6.846;2024-03-08T07:55:54;5.97;;;5.47;;
35494;SDS011;75532;49.300;6.846;2024-03-08T07:58:55;5.55;;;5.15;;
35494;SDS011;75532;49.300;6.846;2024-03-08T08:01:55;5.70;;;5.30;;
35494;SDS011;75532;49.300;6.846;2024-03-08T08:04:57;5.20;;;4.80;;
35494;SDS011;75532;49.300;6.846;2024-03-08T08:07:59;5.28;;;4.88;;
35494;SDS011;75532;49.300;6.846;2024-03-08T08:10:59;5.28;;;4.85;;
35494;SDS011;75532;49.300;6.846;2024-03-08T08:14:01;6.07;;;5.57;;
35494;SDS011;75532;49.300;6.846;2024-03-08T08:17:01;4.82;;;4.47;;
35494;SDS011;75532;49.300;6.846;2024-03-08T08:20:04;5.57;;;5.10;;
35494;SDS011;75532;49.300;6.846;2024-03-08T08:23:05;6.10;;;5.60;;
35494;SDS011;75532;49.300;6.846;2024-03-08T08:26:06;5.40;;;4.95;;
35494;SDS011;75532;49.300;6.846;2024-03-08T08:29:07;5.68;;;5.20;;
35494;SDS011;75532;49.300;6.846;2024-03-08T08:32:08;5.70;;;5.30;;
35494;SDS011;75532;49.300;6.846;2024-03-08T08:35:09;5.10;;;4.53;;
35494;SDS011;75532;49.300;6.846;2024-03-08T08:38:12;5.60;;;5.13;;
35494;SDS011;75532;49.300;6.846;2024-03-08T08:41:16;5.60;;;5.10;;
35494;SDS011;75532;49.300;6.846;2024-03-08T08:44:17;5.55;;;5.05;;
35494;SDS011;75532;49.300;6.846;2024-03-08T08:47:17;4.68;;;4.38;;
35494;SDS011;75532;49.300;6.846;2024-03-08T08:50:18;5.38;;;4.95;;
35494;SDS011;75532;49.300;6.846;2024-03-08T08:53:25;5.07;;;4.68;;
35494;SDS011;75532;49.300;6.846;2024-03-08T08:56:26;4.90;;;4.55;;
35494;SDS011;75532;49.300;6.846;2024-03-08T08:59:26;5.13;;;4.57;;
35494;SDS011;75532;49.300;6.846;2024-03-08T09:02:27;5.53;;;5.13;;
35494;SDS011;75532;49.300;6.846;2024-03-08T09:05:27;4.80;;;4.50;;
35494;SDS011;75532;49.300;6.846;2024-03-08T09:08:28;4.95;;;4.65;;
35494;SDS011;75532;49.300;6.846;2024-03-08T09:11:29;5.13;;;4.72;;
35494;SDS011;75532;49.300;6.846;2024-03-08T09:14:29;5.75;;;4.63;;
35494;SDS011;75532;49.300;6.846;2024-03-08T09:17:30;5.40;;;5.00;;
35494;SDS011;75532;49.300;6.846;2024-03-08T09:20:31;5.00;;;4.60;;
35494;SDS011;75532;49.300;6.846;2024-03-08T09:23:32;4.78;;;4.40;;
35494;SDS011;75532;49.300;6.846;2024-03-08T09:26:33;4.45;;;4.15;;
35494;SDS011;75532;49.300;6.846;2024-03-08T09:29:33;5.55;;;4.72;;
35494;SDS011;75532;49.300;6.846;2024-03-08T09:32:34;6.18;;;5.00;;
35494;SDS011;75532;49.300;6.846;2024-03-08T09:35:34;5.13;;;4.70;;
35494;SDS011;75532;49.300;6.846;2024-03-08T09:38:35;4.63;;;4.32;;
35494;SDS011;75532;49.300;6.846;2024-03-08T09:41:39;14.48;;;5.82;;
35494;SDS011;75532;49.300;6.846;2024-03-08T09:44:39;7.18;;;5.43;;
35494;SDS011;75532;49.300;6.846;2024-03-08T09:47:44;10.73;;;6.25;;
35494;SDS011;75532;49.300;6.846;2024-03-08T09:50:45;18.10;;;8.27;;
35494;SDS011;75532;49.300;6.846;2024-03-08T09:53:46;10.57;;;6.15;;
35494;SDS011;75532;49.300;6.846;2024-03-08T09:56:47;12.57;;;6.88;;
35494;SDS011;75532;49.300;6.846;2024-03-08T09:59:51;9.68;;;5.95;;
35494;SDS011;75532;49.300;6.846;2024-03-08T10:02:51;12.32;;;5.90;;
35494;SDS011;75532;49.300;6.846;2024-03-08T10:05:55;9.95;;;6.03;;
35494;SDS011;75532;49.300;6.846;2024-03-08T10:09:00;9.20;;;5.72;;
35494;SDS011;75532;49.300;6.846;2024-03-08T10:12:00;12.10;;;5.97;;
35494;SDS011;75532;49.300;6.846;2024-03-08T10:15:01;9.80;;;6.03;;
35494;SDS011;75532;49.300;6.846;2024-03-08T10:18:02;13.35;;;5.93;;
35494;SDS011;75532;49.300;6.846;2024-03-08T10:21:05;9.52;;;6.10;;
35494;SDS011;75532;49.300;6.846;2024-03-08T10:24:10;11.32;;;6.35;;
35494;SDS011;75532;49.300;6.846;2024-03-08T10:27:10;8.70;;;5.30;;
35494;SDS011;75532;49.300;6.846;2024-03-08T10:30:14;8.20;;;5.88;;
35494;SDS011;75532;49.300;6.846;2024-03-08T10:33:19;5.55;;;4.82;;
35494;SDS011;75532;49.300;6.846;2024-03-08T10:36:20;7.65;;;5.47;;
35494;SDS011;75532;49.300;6.846;2024-03-08T10:39:21;7.10;;;5.10;;
35494;SDS011;75532;49.300;6.846;2024-03-08T10:42:23;10.07;;;5.35;;
35494;SDS011;75532;49.300;6.846;2024-03-08T10:45:35;5.55;;;4.80;;
35494;SDS011;75532;49.300;6.846;2024-03-08T10:48:40;7.68;;;5.47;;
35494;SDS011;75532;49.300;6.846;2024-03-08T10:51:44;8.65;;;5.80;;
35494;SDS011;75532;49.300;6.846;2024-03-08T10:54:47;7.90;;;5.07;;
35494;SDS011;75532;49.300;6.846;2024-03-08T10:57:51;7.38;;;4.97;;
35494;SDS011;75532;49.300;6.846;2024-03-08T11:00:54;5.57;;;5.03;;
35494;SDS011;75532;49.300;6.846;2024-03-08T11:03:58;5.38;;;4.82;;
35494;SDS011;75532;49.300;6.846;2024-03-08T11:07:02;5.85;;;4.97;;
35494;SDS011;75532;49.300;6.846;2024-03-08T11:10:06;5.65;;;5.20;;
35494;SDS011;75532;49.300;6.846;2024-03-08T11:16:40;5.43;;;4.93;;
35494;SDS011;75532;49.300;6.846;2024-03-08T11:19:48;6.20;;;5.05;;
35494;SDS011;75532;49.300;6.846;2024-03-08T11:22:50;5.53;;;4.85;;
35494;SDS011;75532;49.300;6.846;2024-03-08T11:25:54;5.22;;;4.80;;
35494;SDS011;75532;49.300;6.846;2024-03-08T11:28:55;6.13;;;5.18;;
35494;SDS011;75532;49.300;6.846;2024-03-08T11:32:16;5.53;;;4.90;;
35494;SDS011;75532;49.300;6.846;2024-03-08T11:35:21;5.15;;;4.65;;
35494;SDS011;75532;49.300;6.846;2024-03-08T11:41:26;5.00;;;4.53;;
35494;SDS011;75532;49.300;6.846;2024-03-08T11:44:27;5.55;;;4.97;;
35494;SDS011;75532;49.300;6.846;2024-03-08T11:47:31;5.60;;;4.53;;
35494;SDS011;75532;49.300;6.846;2024-03-08T11:50:32;5.05;;;4.65;;
35494;SDS011;75532;49.300;6.846;2024-03-08T11:53:33;5.88;;;5.15;;
35494;SDS011;75532;49.300;6.846;2024-03-08T11:56:33;4.90;;;4.50;;
35494;SDS011;75532;49.300;6.846;2024-03-08T11:59:34;4.95;;;4.55;;
35494;SDS011;75532;49.300;6.846;2024-03-08T12:02:35;4.82;;;4.43;;
35494;SDS011;75532;49.300;6.846;2024-03-08T12:05:37;5.35;;;4.85;;
35494;SDS011;75532;49.300;6.846;2024-03-08T12:08:38;4.50;;;4.05;;
35494;SDS011;75532;49.300;6.846;2024-03-08T12:11:39;5.35;;;4.85;;
35494;SDS011;75532;49.300;6.846;2024-03-08T12:14:42;5.25;;;4.75;;
35494;SDS011;75532;49.300;6.846;2024-03-08T12:17:45;5.53;;;4.40;;
35494;SDS011;75532;49.300;6.846;2024-03-08T12:20:50;4.75;;;4.28;;
35494;SDS011;75532;49.300;6.846;2024-03-08T12:24:03;4.72;;;4.32;;
35494;SDS011;75532;49.300;6.846;2024-03-08T12:27:18;4.97;;;4.57;;
35494;SDS011;75532;49.300;6.846;2024-03-08T12:30:26;8.85;;;4.72;;
35494;SDS011;75532;49.300;6.846;2024-03-08T12:33:27;4.30;;;3.97;;
35494;SDS011;75532;49.300;6.846;2024-03-08T12:36:28;5.15;;;4.65;;
35494;SDS011;75532;49.300;6.846;2024-03-08T12:39:29;4.55;;;4.15;;
35494;SDS011;75532;49.300;6.846;2024-03-08T12:42:30;6.22;;;4.40;;
35494;SDS011;75532;49.300;6.846;2024-03-08T12:45:31;5.13;;;4.72;;
35494;SDS011;75532;49.300;6.846;2024-03-08T12:48:35;4.95;;;4.55;;
35494;SDS011;75532;49.300;6.846;2024-03-08T12:54:41;5.25;;;4.60;;
35494;SDS011;75532;49.300;6.846;2024-03-08T12:57:42;4.30;;;3.90;;
35494;SDS011;75532;49.300;6.846;2024-03-08T13:00:43;4.70;;;4.30;;
35494;SDS011;75532;49.300;6.846;2024-03-08T13:03:44;4.40;;;4.00;;
35494;SDS011;75532;49.300;6.846;2024-03-08T13:06:44;4.63;;;4.10;;
35494;SDS011;75532;49.300;6.846;2024-03-08T13:09:46;4.82;;;4.43;;
35494;SDS011;75532;49.300;6.846;2024-03-08T13:12:47;4.68;;;4.38;;
35494;SDS011;75532;49.300;6.846;2024-03-08T13:15:48;4.63;;;4.22;;
35494;SDS011;75532;49.300;6.846;2024-03-08T13:18:49;4.07;;;3.60;;
35494;SDS011;75532;49.300;6.846;2024-03-08T13:21:49;4.45;;;4.05;;
35494;SDS011;75532;49.300;6.846;2024-03-08T13:24:50;4.60;;;4.20;;
35494;SDS011;75532;49.300;6.846;2024-03-08T13:27:52;4.50;;;4.10;;
35494;SDS011;75532;49.300;6.846;2024-03-08T13:30:56;4.85;;;4.13;;
35494;SDS011;75532;49.300;6.846;2024-03-08T13:33:57;4.03;;;3.63;;
35494;SDS011;75532;49.300;6.846;2024-03-08T13:37:01;4.68;;;4.28;;
35494;SDS011;75532;49.300;6.846;2024-03-08T13:40:03;4.65;;;4.25;;
35494;SDS011;75532;49.300;6.846;2024-03-08T13:43:06;3.85;;;3.53;;
35494;SDS011;75532;49.300;6.846;2024-03-08T13:46:09;4.03;;;3.72;;
35494;SDS011;75532;49.300;6.846;2024-03-08T13:49:10;3.80;;;3.50;;
35494;SDS011;75532;49.300;6.846;2024-03-08T13:52:11;4.50;;;4.10;;
35494;SDS011;75532;49.300;6.846;2024-03-08T13:55:14;4.57;;;4.18;;
35494;SDS011;75532;49.300;6.846;2024-03-08T13:58:15;4.20;;;3.90;;
35494;SDS011;75532;49.300;6.846;2024-03-08T14:01:16;3.97;;;3.67;;
35494;SDS011;75532;49.300;6.846;2024-03-08T14:04:16;6.32;;;4.28;;
35494;SDS011;75532;49.300;6.846;2024-03-08T14:07:17;4.65;;;4.22;;
35494;SDS011;75532;49.300;6.846;2024-03-08T14:10:18;4.22;;;3.80;;
35494;SDS011;75532;49.300;6.846;2024-03-08T14:13:23;4.43;;;4.03;;
35494;SDS011;75532;49.300;6.846;2024-03-08T14:16:25;4.15;;;3.85;;
35494;SDS011;75532;49.300;6.846;2024-03-08T14:19:26;4.45;;;4.05;;
35494;SDS011;75532;49.300;6.846;2024-03-08T14:22:26;9.88;;;4.10;;
35494;SDS011;75532;49.300;6.846;2024-03-08T14:25:27;7.63;;;3.50;;
35494;SDS011;75532;49.300;6.846;2024-03-08T14:28:29;7.43;;;3.85;;
35494;SDS011;75532;49.300;6.846;2024-03-08T14:31:33;7.78;;;4.43;;
35494;SDS011;75532;49.300;6.846;2024-03-08T14:34:34;7.68;;;4.00;;
35494;SDS011;75532;49.300;6.846;2024-03-08T14:37:34;6.10;;;3.90;;
35494;SDS011;75532;49.300;6.846;2024-03-08T14:40:35;5.28;;;3.85;;
35494;SDS011;75532;49.300;6.846;2024-03-08T14:43:36;4.70;;;4.22;;
35494;SDS011;75532;49.300;6.846;2024-03-08T14:46:37;4.70;;;4.22;;
35494;SDS011;75532;49.300;6.846;2024-03-08T14:49:38;4.28;;;3.88;;
35494;SDS011;75532;49.300;6.846;2024-03-08T14:52:40;7.03;;;3.95;;
35494;SDS011;75532;49.300;6.846;2024-03-08T14:55:40;4.68;;;4.15;;
35494;SDS011;75532;49.300;6.846;2024-03-08T14:58:41;4.35;;;3.90;;
35494;SDS011;75532;49.300;6.846;2024-03-08T15:01:43;5.85;;;4.88;;
35494;SDS011;75532;49.300;6.846;2024-03-08T15:04:46;5.65;;;3.50;;
35494;SDS011;75532;49.300;6.846;2024-03-08T15:07:56;4.57;;;4.00;;
35494;SDS011;75532;49.300;6.846;2024-03-08T15:10:57;7.22;;;3.20;;
35494;SDS011;75532;49.300;6.846;2024-03-08T15:13:58;8.18;;;4.05;;
35494;SDS011;75532;49.300;6.846;2024-03-08T15:17:00;5.82;;;3.65;;
35494;SDS011;75532;49.300;6.846;2024-03-08T15:20:07;3.85;;;3.55;;
35494;SDS011;75532;49.300;6.846;2024-03-08T15:23:16;4.13;;;3.83;;
35494;SDS011;75532;49.300;6.846;2024-03-08T15:26:16;3.70;;;3.40;;
35494;SDS011;75532;49.300;6.846;2024-03-08T15:29:17;3.65;;;3.35;;
35494;SDS011;75532;49.300;6.846;2024-03-08T15:32:26;5.72;;;4.05;;
35494;SDS011;75532;49.300;6.846;2024-03-08T15:35:27;4.78;;;4.15;;
35494;SDS011;75532;49.300;6.846;2024-03-08T15:38:28;4.22;;;3.80;;
35494;SDS011;75532;49.300;6.846;2024-03-08T15:41:29;4.47;;;4.07;;
35494;SDS011;75532;49.300;6.846;2024-03-08T15:44:29;4.20;;;3.90;;
35494;SDS011;75532;49.300;6.846;2024-03-08T15:47:30;3.05;;;2.85;;
35494;SDS011;75532;49.300;6.846;2024-03-08T15:50:31;4.07;;;3.75;;
35494;SDS011;75532;49.300;6.846;2024-03-08T15:53:32;4.68;;;3.45;;
35494;SDS011;75532;49.300;6.846;2024-03-08T15:56:34;5.10;;;3.63;;
35494;SDS011;75532;49.300;6.846;2024-03-08T15:59:36;4.80;;;3.75;;
35494;SDS011;75532;49.300;6.846;2024-03-08T16:02:39;3.70;;;3.40;;
35494;SDS011;75532;49.300;6.846;2024-03-08T16:05:41;3.50;;;3.20;;
35494;SDS011;75532;49.300;6.846;2024-03-08T16:08:44;5.47;;;4.15;;
35494;SDS011;75532;49.300;6.846;2024-03-08T16:11:44;3.33;;;3.13;;
35494;SDS011;75532;49.300;6.846;2024-03-08T16:14:45;4.15;;;3.83;;
35494;SDS011;75532;49.300;6.846;2024-03-08T16:17:46;3.85;;;3.55;;
35494;SDS011;75532;49.300;6.846;2024-03-08T16:20:49;4.38;;;3.97;;
35494;SDS011;75532;49.300;6.846;2024-03-08T16:23:50;4.20;;;3.88;;
35494;SDS011;75532;49.300;6.846;2024-03-08T16:26:51;4.07;;;3.78;;
35494;SDS011;75532;49.300;6.846;2024-03-08T16:29:52;3.80;;;3.50;;
35494;SDS011;75532;49.300;6.846;2024-03-08T16:32:52;3.90;;;3.60;;
35494;SDS011;75532;49.300;6.846;2024-03-08T16:35:53;5.40;;;3.92;;
35494;SDS011;75532;49.300;6.846;2024-03-08T16:38:54;3.85;;;3.55;;
35494;SDS011;75532;49.300;6.846;2024-03-08T16:41:54;5.38;;;3.13;;
35494;SDS011;75532;49.300;6.846;2024-03-08T16:44:56;6.00;;;3.83;;
35494;SDS011;75532;49.300;6.846;2024-03-08T16:47:57;3.50;;;3.28;;
35494;SDS011;75532;49.300;6.846;2024-03-08T16:51:01;4.25;;;3.80;;
35494;SDS011;75532;49.300;6.846;2024-03-08T16:54:02;4.28;;;3.85;;
35494;SDS011;75532;49.300;6.846;2024-03-08T16:57:03;3.97;;;3.67;;
35494;SDS011;75532;49.300;6.846;2024-03-08T17:00:05;7.45;;;4.32;;
35494;SDS011;75532;49.300;6.846;2024-03-08T17:03:13;3.70;;;3.35;;
35494;SDS011;75532;49.300;6.846;2024-03-08T17:06:14;3.50;;;3.20;;
35494;SDS011;75532;49.300;6.846;2024-03-08T17:09:15;3.72;;;3.38;;
35494;SDS011;75532;49.300;6.846;2024-03-08T17:12:17;6.18;;;3.63;;
35494;SDS011;75532;49.300;6.846;2024-03-08T17:15:20;4.28;;;3.63;;
35494;SDS011;75532;49.300;6.846;2024-03-08T17:18:24;3.95;;;3.13;;
35494;SDS011;75532;49.300;6.846;2024-03-08T17:21:26;4.07;;;3.03;;
35494;SDS011;75532;49.300;6.846;2024-03-08T17:24:27;3.40;;;3.10;;
35494;SDS011;75532;49.300;6.846;2024-03-08T17:27:28;4.55;;;3.70;;
35494;SDS011;75532;49.300;6.846;2024-03-08T17:30:29;8.98;;;3.88;;
35494;SDS011;75532;49.300;6.846;2024-03-08T17:33:32;7.97;;;3.95;;
35494;SDS011;75532;49.300;6.846;2024-03-08T17:36:35;4.75;;;3.80;;
35494;SDS011;75532;49.300;6.846;2024-03-08T17:39:36;7.80;;;4.13;;
35494;SDS011;75532;49.300;6.846;2024-03-08T17:42:38;6.35;;;3.88;;
35494;SDS011;75532;49.300;6.846;2024-03-08T17:45:39;6.75;;;4.05;;
35494;SDS011;75532;49.300;6.846;2024-03-08T17:48:41;8.60;;;4.88;;
35494;SDS011;75532;49.300;6.846;2024-03-08T17:51:41;4.90;;;3.95;;
35494;SDS011;75532;49.300;6.846;2024-03-08T17:54:42;4.88;;;3.92;;
35494;SDS011;75532;49.300;6.846;2024-03-08T17:57:43;6.07;;;3.40;;
35494;SDS011;75532;49.300;6.846;2024-03-08T18:00:45;4.78;;;3.58;;
35494;SDS011;75532;49.300;6.846;2024-03-08T18:03:46;7.13;;;4.30;;
35494;SDS011;75532;49.300;6.846;2024-03-08T18:06:47;4.43;;;3.20;;
35494;SDS011;75532;49.300;6.846;2024-03-08T18:09:48;4.10;;;3.53;;
35494;SDS011;75532;49.300;6.846;2024-03-08T18:12:49;6.45;;;4.13;;
35494;SDS011;75532;49.300;6.846;2024-03-08T18:15:51;3.85;;;3.55;;
35494;SDS011;75532;49.300;6.846;2024-03-08T18:18:53;4.03;;;3.63;;
35494;SDS011;75532;49.300;6.846;2024-03-08T18:21:54;4.47;;;3.10;;
35494;SDS011;75532;49.300;6.846;2024-03-08T18:24:55;5.38;;;4.15;;